createdAt,value
2019-03-09T00:00:37.499Z,20.37
2019-03-09T00:01:10.711Z,18.73
2019-03-09T00:01:43.796Z,17.67
2019-03-09T00:02:15.060Z,22.43
2019-03-09T00:02:46.224Z,17.43
2019-03-09T00:03:17.433Z,22.03
2019-03-09T00:03:48.647Z,20.87
2019-03-09T00:04:20.160Z,22.87
2019-03-09T00:04:51.338Z,24.00
2019-03-09T00:05:22.546Z,21.73
2019-03-09T00:05:53.708Z,24.57
2019-03-09T00:06:24.939Z,19.63
2019-03-09T00:06:56.091Z,20.57
2019-03-09T00:07:27.292Z,17.93
2019-03-09T00:07:58.457Z,21.73
2019-03-09T00:08:29.660Z,30.23
2019-03-09T00:09:00.808Z,25.37
2019-03-09T00:09:32.371Z,23.13
2019-03-09T00:10:07.635Z,24.83
2019-03-09T00:10:38.916Z,21.23
2019-03-09T00:11:10.481Z,27.17
2019-03-09T00:11:41.683Z,27.60
2019-03-09T00:12:12.843Z,22.83
2019-03-09T00:12:44.052Z,25.27
2019-03-09T00:13:15.208Z,23.00
2019-03-09T00:13:46.423Z,28.73
2019-03-09T00:14:17.570Z,27.73
2019-03-09T00:14:48.803Z,21.97
2019-03-09T00:15:19.957Z,28.30
2019-03-09T00:15:51.208Z,34.73
2019-03-09T00:16:22.361Z,23.67
2019-03-09T00:16:53.755Z,25.57
2019-03-09T00:17:24.905Z,19.17
2019-03-09T00:17:56.231Z,17.57
2019-03-09T00:18:27.399Z,20.13
2019-03-09T00:18:58.628Z,23.57
2019-03-09T00:19:29.790Z,20.73
2019-03-09T00:20:01.004Z,20.97
2019-03-09T00:20:32.204Z,28.50
2019-03-09T00:21:03.407Z,19.00
2019-03-09T00:21:34.583Z,21.20
2019-03-09T00:22:05.781Z,17.07
2019-03-09T00:22:36.963Z,18.57
2019-03-09T00:23:16.777Z,19.23
2019-03-09T00:23:49.916Z,21.63
2019-03-09T00:24:39.357Z,21.87
2019-03-09T00:25:12.617Z,19.73
2019-03-09T00:25:48.651Z,22.07
2019-03-09T00:26:27.675Z,22.17
2019-03-09T00:27:00.782Z,24.97
2019-03-09T00:27:34.214Z,25.43
2019-03-09T00:28:13.071Z,32.80
2019-03-09T00:29:02.324Z,23.97
2019-03-09T00:29:38.418Z,29.43
2019-03-09T00:30:14.336Z,25.17
2019-03-09T00:30:47.456Z,26.73
2019-03-09T00:31:20.509Z,26.03
2019-03-09T00:31:54.600Z,22.17
2019-03-09T00:32:25.824Z,24.00
2019-03-09T00:32:57.050Z,21.93
2019-03-09T00:33:28.232Z,19.57
2019-03-09T00:33:59.490Z,22.07
2019-03-09T00:34:30.728Z,22.27
2019-03-09T00:35:02.235Z,23.07
2019-03-09T00:35:33.484Z,21.07
2019-03-09T00:36:04.942Z,26.40
2019-03-09T00:36:36.178Z,18.60
2019-03-09T00:37:07.415Z,18.33
2019-03-09T00:37:38.643Z,22.43
2019-03-09T00:38:09.880Z,25.77
2019-03-09T00:38:41.095Z,23.00
2019-03-09T00:39:12.270Z,17.37
2019-03-09T00:39:43.471Z,17.87
2019-03-09T00:40:14.621Z,22.33
2019-03-09T00:40:45.847Z,20.67
2019-03-09T00:41:16.999Z,21.10
2019-03-09T00:41:48.403Z,23.50
2019-03-09T00:42:19.564Z,21.60
2019-03-09T00:42:50.828Z,23.13
2019-03-09T00:43:22.078Z,28.10
2019-03-09T00:43:53.296Z,23.37
2019-03-09T00:44:24.528Z,25.20
2019-03-09T00:44:55.782Z,21.47
2019-03-09T00:45:27.031Z,20.53
2019-03-09T00:45:58.263Z,21.67
2019-03-09T00:46:29.492Z,22.20
2019-03-09T00:47:00.741Z,22.13
2019-03-09T00:47:32.017Z,22.97
2019-03-09T00:48:03.276Z,20.50
2019-03-09T00:48:34.887Z,25.80
2019-03-09T00:49:06.099Z,27.60
2019-03-09T00:49:37.283Z,16.93
2019-03-09T00:50:09.384Z,21.40
2019-03-09T00:50:40.572Z,22.43
2019-03-09T00:51:11.753Z,19.30
2019-03-09T00:51:42.937Z,22.03
2019-03-09T00:52:14.115Z,21.10
2019-03-09T00:52:45.310Z,22.00
2019-03-09T00:53:16.487Z,16.77
2019-03-09T00:53:47.669Z,22.43
2019-03-09T00:54:19.046Z,20.83
2019-03-09T00:54:50.229Z,18.23
2019-03-09T00:55:22.638Z,17.57
2019-03-09T00:55:53.857Z,16.83
2019-03-09T00:56:25.114Z,17.07
2019-03-09T00:56:56.350Z,20.63
2019-03-09T00:57:27.582Z,19.37
2019-03-09T00:57:59.822Z,20.57
2019-03-09T00:58:31.024Z,18.70
2019-03-09T00:59:02.202Z,21.50
2019-03-09T00:59:33.420Z,19.93
2019-03-09T01:00:12.920Z,26.97
2019-03-09T01:00:44.128Z,21.40
2019-03-09T01:01:15.398Z,19.87
2019-03-09T01:01:46.620Z,25.27
2019-03-09T01:02:17.809Z,25.77
2019-03-09T01:02:51.033Z,24.03
2019-03-09T01:03:22.126Z,22.83
2019-03-09T01:03:53.358Z,18.93
2019-03-09T01:04:24.528Z,21.13
2019-03-09T01:04:55.753Z,20.00
2019-03-09T01:05:26.935Z,21.37
2019-03-09T01:05:59.189Z,21.63
2019-03-09T01:06:30.343Z,23.50
2019-03-09T01:07:01.828Z,20.77
2019-03-09T01:07:32.999Z,19.30
2019-03-09T01:08:04.196Z,23.17
2019-03-09T01:08:35.403Z,21.20
2019-03-09T01:09:07.222Z,21.63
2019-03-09T01:09:38.650Z,21.13
2019-03-09T01:10:14.745Z,20.63
2019-03-09T01:10:45.989Z,25.20
2019-03-09T01:11:17.220Z,22.23
2019-03-09T01:11:48.471Z,20.20
2019-03-09T01:12:19.729Z,22.43
2019-03-09T01:12:50.967Z,19.87
2019-03-09T01:13:22.201Z,20.57
2019-03-09T01:13:53.439Z,25.67
2019-03-09T01:14:24.603Z,19.77
2019-03-09T01:14:55.820Z,29.13
2019-03-09T01:15:26.967Z,23.20
2019-03-09T01:15:58.182Z,20.20
2019-03-09T01:16:29.327Z,22.87
2019-03-09T01:17:00.665Z,20.33
2019-03-09T01:17:31.950Z,21.03
2019-03-09T01:18:03.290Z,23.33
2019-03-09T01:18:34.446Z,23.43
2019-03-09T01:19:05.764Z,24.40
2019-03-09T01:19:36.936Z,26.60
2019-03-09T01:20:11.630Z,23.03
2019-03-09T01:20:42.797Z,22.80
2019-03-09T01:21:13.997Z,24.33
2019-03-09T01:21:45.155Z,22.30
2019-03-09T01:22:16.356Z,23.20
2019-03-09T01:22:47.509Z,26.97
2019-03-09T01:23:18.730Z,24.23
2019-03-09T01:23:50.898Z,20.17
2019-03-09T01:24:22.177Z,23.03
2019-03-09T01:24:53.409Z,21.93
2019-03-09T01:25:25.630Z,20.97
2019-03-09T01:25:56.868Z,23.27
2019-03-09T01:26:28.093Z,21.40
2019-03-09T01:26:59.326Z,22.77
2019-03-09T01:27:30.600Z,23.10
2019-03-09T01:28:01.978Z,19.50
2019-03-09T01:28:33.213Z,19.30
2019-03-09T01:29:04.420Z,24.03
2019-03-09T01:29:35.574Z,20.70
2019-03-09T01:30:14.196Z,23.57
2019-03-09T01:30:45.384Z,28.73
2019-03-09T01:31:16.609Z,21.77
2019-03-09T01:31:47.767Z,26.30
2019-03-09T01:32:19.018Z,25.03
2019-03-09T01:32:50.186Z,27.10
2019-03-09T01:33:21.418Z,30.57
2019-03-09T01:33:52.605Z,28.37
2019-03-09T01:34:23.833Z,23.87
2019-03-09T01:34:55.067Z,25.43
2019-03-09T01:35:26.303Z,25.87
2019-03-09T01:35:57.525Z,32.23
2019-03-09T01:36:28.755Z,23.03
2019-03-09T01:36:59.997Z,24.67
2019-03-09T01:37:31.271Z,28.93
2019-03-09T01:38:02.589Z,24.97
2019-03-09T01:38:33.827Z,26.33
2019-03-09T01:39:05.327Z,21.90
2019-03-09T01:39:37.105Z,21.83
2019-03-09T01:40:11.413Z,22.13
2019-03-09T01:40:42.569Z,27.20
2019-03-09T01:41:13.780Z,19.90
2019-03-09T01:41:44.976Z,24.47
2019-03-09T01:42:16.196Z,20.00
2019-03-09T01:42:48.355Z,21.03
2019-03-09T01:43:19.545Z,26.23
2019-03-09T01:43:50.697Z,25.63
2019-03-09T01:44:21.901Z,17.00
2019-03-09T01:44:53.081Z,16.17
2019-03-09T01:45:24.323Z,20.07
2019-03-09T01:45:55.454Z,16.50
2019-03-09T01:46:26.659Z,17.00
2019-03-09T01:46:57.818Z,25.63
2019-03-09T01:47:29.023Z,20.53
2019-03-09T01:48:00.163Z,19.00
2019-03-09T01:48:31.364Z,24.00
2019-03-09T01:49:02.584Z,24.00
2019-03-09T01:49:33.888Z,25.10
2019-03-09T01:50:07.460Z,22.90
2019-03-09T01:50:38.738Z,22.80
2019-03-09T01:51:10.037Z,21.47
2019-03-09T01:51:41.256Z,24.97
2019-03-09T01:52:12.504Z,24.13
2019-03-09T01:52:43.742Z,21.80
2019-03-09T01:53:14.966Z,18.43
2019-03-09T01:53:46.244Z,19.03
2019-03-09T01:54:17.458Z,22.33
2019-03-09T01:54:48.606Z,23.97
2019-03-09T01:55:19.815Z,21.83
2019-03-09T01:55:51.900Z,18.83
2019-03-09T01:56:23.087Z,19.87
2019-03-09T01:56:54.273Z,21.47
2019-03-09T01:57:25.455Z,21.13
2019-03-09T01:57:56.638Z,22.87
2019-03-09T01:58:27.867Z,22.93
2019-03-09T01:58:59.077Z,18.57
2019-03-09T01:59:30.253Z,29.00
2019-03-09T02:00:04.431Z,27.50
2019-03-09T02:00:37.501Z,21.70
2019-03-09T02:01:08.681Z,17.73
2019-03-09T02:01:39.869Z,17.10
2019-03-09T02:02:11.064Z,20.93
2019-03-09T02:02:42.243Z,19.20
2019-03-09T02:03:13.421Z,18.70
2019-03-09T02:03:44.593Z,20.47
2019-03-09T02:04:15.763Z,20.60
2019-03-09T02:04:47.901Z,18.50
2019-03-09T02:05:19.113Z,17.10
2019-03-09T02:05:50.268Z,20.13
2019-03-09T02:06:21.469Z,20.80
2019-03-09T02:06:52.636Z,22.60
2019-03-09T02:07:23.908Z,23.00
2019-03-09T02:07:55.106Z,19.63
2019-03-09T02:08:26.323Z,23.97
2019-03-09T02:08:57.485Z,19.57
2019-03-09T02:09:28.707Z,19.70
2019-03-09T02:09:59.866Z,20.93
2019-03-09T02:10:31.174Z,23.83
2019-03-09T02:11:02.329Z,20.90
2019-03-09T02:11:33.541Z,22.17
2019-03-09T02:12:04.926Z,21.13
2019-03-09T02:12:36.135Z,19.17
2019-03-09T02:13:07.290Z,23.47
2019-03-09T02:13:38.502Z,17.70
2019-03-09T02:14:09.661Z,18.67
2019-03-09T02:14:40.851Z,18.37
2019-03-09T02:15:14.311Z,18.93
2019-03-09T02:15:45.516Z,19.30
2019-03-09T02:16:16.662Z,17.77
2019-03-09T02:16:47.860Z,19.40
2019-03-09T02:17:19.028Z,25.50
2019-03-09T02:17:50.294Z,18.53
2019-03-09T02:18:21.526Z,20.90
2019-03-09T02:18:52.734Z,22.27
2019-03-09T02:19:23.918Z,21.97
2019-03-09T02:19:55.152Z,25.83
2019-03-09T02:20:26.412Z,20.03
2019-03-09T02:20:57.646Z,25.43
2019-03-09T02:21:28.907Z,19.60
2019-03-09T02:22:52.890Z,21.83
2019-03-09T02:23:24.259Z,21.80
2019-03-09T02:23:55.486Z,23.13
2019-03-09T02:24:26.727Z,21.37
2019-03-09T02:24:57.874Z,25.63
2019-03-09T02:25:29.065Z,28.03
2019-03-09T02:26:00.208Z,22.03
2019-03-09T02:26:31.410Z,28.93
2019-03-09T02:27:02.581Z,23.67
2019-03-09T02:27:33.804Z,21.50
2019-03-09T02:28:04.963Z,20.20
2019-03-09T02:28:36.180Z,28.17
2019-03-09T02:29:07.381Z,22.60
2019-03-09T02:29:38.583Z,26.07
2019-03-09T02:30:17.062Z,19.40
2019-03-09T02:30:48.271Z,16.70
2019-03-09T02:31:19.465Z,25.53
2019-03-09T02:31:50.679Z,17.60
2019-03-09T02:32:21.835Z,19.30
2019-03-09T02:32:53.061Z,23.30
2019-03-09T02:33:24.197Z,17.83
2019-03-09T02:33:55.437Z,19.93
2019-03-09T02:34:26.596Z,16.67
2019-03-09T02:34:57.800Z,18.03
2019-03-09T02:35:28.977Z,20.93
2019-03-09T02:36:00.183Z,18.87
2019-03-09T02:36:31.349Z,20.67
2019-03-09T02:37:02.552Z,19.37
2019-03-09T02:37:34.931Z,20.80
2019-03-09T02:38:10.639Z,15.80
2019-03-09T02:38:46.699Z,19.70
2019-03-09T02:39:19.802Z,26.43
2019-03-09T02:39:55.540Z,21.67
2019-03-09T02:40:28.050Z,16.60
2019-03-09T02:40:59.277Z,19.87
2019-03-09T02:41:31.884Z,26.10
2019-03-09T02:42:03.115Z,25.17
2019-03-09T02:42:34.350Z,19.93
2019-03-09T02:43:05.598Z,27.60
2019-03-09T02:43:36.810Z,19.97
2019-03-09T02:44:08.105Z,22.90
2019-03-09T02:44:39.368Z,21.77
2019-03-09T02:45:17.924Z,24.40
2019-03-09T02:45:50.124Z,22.30
2019-03-09T02:46:21.329Z,20.13
2019-03-09T02:46:52.503Z,18.23
2019-03-09T02:47:23.710Z,17.80
2019-03-09T02:47:54.872Z,17.53
2019-03-09T02:48:26.058Z,17.67
2019-03-09T02:48:57.205Z,15.97
2019-03-09T02:49:28.400Z,19.60
2019-03-09T02:49:59.654Z,20.13
2019-03-09T02:50:30.899Z,17.37
2019-03-09T02:51:02.348Z,19.03
2019-03-09T02:51:33.534Z,20.80
2019-03-09T02:52:04.926Z,20.73
2019-03-09T02:52:36.104Z,23.20
2019-03-09T02:53:07.302Z,20.97
2019-03-09T02:53:38.457Z,17.90
2019-03-09T02:54:09.625Z,23.13
2019-03-09T02:54:40.827Z,19.60
2019-03-09T02:55:12.613Z,17.90
2019-03-09T02:55:43.757Z,22.53
2019-03-09T02:56:14.988Z,24.73
2019-03-09T02:56:46.222Z,28.40
2019-03-09T02:57:17.455Z,19.17
2019-03-09T02:57:48.687Z,18.37
2019-03-09T02:58:19.925Z,17.77
2019-03-09T02:58:51.160Z,19.60
2019-03-09T02:59:22.433Z,24.63
2019-03-09T02:59:53.684Z,16.87
2019-03-09T03:00:26.805Z,17.03
2019-03-09T03:00:59.879Z,20.97
2019-03-09T03:01:35.871Z,22.67
2019-03-09T03:02:11.667Z,16.17
2019-03-09T03:02:44.788Z,18.40
2019-03-09T03:03:16.010Z,18.37
2019-03-09T03:03:47.217Z,22.07
2019-03-09T03:04:18.385Z,22.53
2019-03-09T03:04:49.594Z,16.70
2019-03-09T03:05:20.818Z,24.03
2019-03-09T03:05:52.126Z,23.50
2019-03-09T03:06:23.352Z,20.83
2019-03-09T03:06:54.588Z,23.93
2019-03-09T03:07:25.830Z,16.30
2019-03-09T03:07:57.050Z,18.77
2019-03-09T03:08:28.307Z,26.30
2019-03-09T03:08:59.562Z,22.90
2019-03-09T03:09:32.069Z,22.10
2019-03-09T03:10:06.261Z,19.87
2019-03-09T03:10:37.516Z,19.27
2019-03-09T03:11:08.677Z,21.83
2019-03-09T03:11:39.874Z,26.87
2019-03-09T03:12:11.054Z,26.07
2019-03-09T03:12:42.349Z,21.17
2019-03-09T03:13:13.495Z,23.87
2019-03-09T03:13:44.701Z,17.73
2019-03-09T03:14:15.860Z,21.87
2019-03-09T03:14:47.144Z,21.20
2019-03-09T03:15:34.971Z,23.10
2019-03-09T03:16:06.220Z,19.80
2019-03-09T03:16:38.548Z,22.23
2019-03-09T03:17:09.776Z,19.87
2019-03-09T03:17:41.009Z,26.90
2019-03-09T03:18:13.289Z,20.40
2019-03-09T03:18:44.585Z,20.90
2019-03-09T03:19:15.824Z,20.47
2019-03-09T03:19:47.009Z,21.00
2019-03-09T03:20:18.233Z,19.43
2019-03-09T03:20:49.406Z,21.37
2019-03-09T03:21:20.591Z,25.53
2019-03-09T03:21:51.855Z,21.43
2019-03-09T03:22:23.117Z,19.73
2019-03-09T03:22:54.312Z,22.43
2019-03-09T03:23:25.522Z,22.80
2019-03-09T03:23:56.783Z,18.70
2019-03-09T03:24:27.964Z,21.60
2019-03-09T03:24:59.142Z,26.03
2019-03-09T03:25:30.310Z,21.10
2019-03-09T03:26:01.834Z,23.33
2019-03-09T03:26:33.080Z,26.13
2019-03-09T03:27:04.270Z,19.63
2019-03-09T03:27:35.532Z,21.67
2019-03-09T03:28:06.707Z,18.20
2019-03-09T03:28:37.883Z,26.30
2019-03-09T03:29:09.064Z,20.77
2019-03-09T03:29:40.249Z,22.40
2019-03-09T03:30:11.481Z,22.73
2019-03-09T03:30:42.762Z,20.50
2019-03-09T03:31:13.936Z,21.93
2019-03-09T03:31:45.126Z,21.20
2019-03-09T03:32:16.402Z,20.00
2019-03-09T03:32:47.591Z,19.77
2019-03-09T03:33:18.781Z,24.40
2019-03-09T03:33:49.973Z,20.83
2019-03-09T03:34:21.287Z,14.23
2019-03-09T03:34:52.543Z,18.50
2019-03-09T03:35:23.729Z,18.70
2019-03-09T03:35:54.954Z,17.03
2019-03-09T03:36:27.127Z,16.20
2019-03-09T03:36:58.327Z,20.77
2019-03-09T03:37:29.460Z,18.70
2019-03-09T03:38:00.686Z,22.87
2019-03-09T03:38:31.838Z,20.70
2019-03-09T03:39:04.958Z,16.17
2019-03-09T03:39:36.499Z,22.60
2019-03-09T03:40:08.009Z,22.17
2019-03-09T03:40:39.251Z,18.80
2019-03-09T03:41:10.478Z,20.87
2019-03-09T03:41:41.628Z,17.43
2019-03-09T03:42:12.878Z,20.17
2019-03-09T03:42:44.044Z,20.00
2019-03-09T03:43:16.302Z,23.00
2019-03-09T03:43:47.628Z,20.43
2019-03-09T03:44:18.819Z,17.03
2019-03-09T03:44:49.974Z,25.10
2019-03-09T03:45:21.190Z,20.77
2019-03-09T03:45:52.392Z,19.17
2019-03-09T03:46:23.620Z,19.80
2019-03-09T03:46:54.796Z,16.73
2019-03-09T03:47:25.998Z,23.00
2019-03-09T03:47:57.157Z,20.30
2019-03-09T03:48:28.359Z,21.20
2019-03-09T03:48:59.619Z,19.73
2019-03-09T03:49:30.817Z,20.13
2019-03-09T03:50:03.607Z,21.03
2019-03-09T03:50:34.980Z,18.13
2019-03-09T03:51:06.233Z,17.23
2019-03-09T03:51:37.425Z,17.23
2019-03-09T03:52:08.616Z,19.03
2019-03-09T03:52:39.897Z,18.97
2019-03-09T03:53:11.083Z,21.90
2019-03-09T03:53:42.304Z,23.80
2019-03-09T03:54:13.568Z,19.57
2019-03-09T03:54:44.761Z,20.47
2019-03-09T03:55:15.951Z,21.77
2019-03-09T03:55:47.123Z,22.17
2019-03-09T03:56:18.301Z,25.97
2019-03-09T03:56:49.589Z,27.40
2019-03-09T03:57:20.826Z,28.43
2019-03-09T03:57:52.061Z,29.23
2019-03-09T03:58:23.231Z,26.80
2019-03-09T03:58:54.408Z,26.67
2019-03-09T03:59:25.602Z,24.43
2019-03-09T03:59:56.786Z,26.53
2019-03-09T04:00:27.997Z,24.40
2019-03-09T04:00:59.166Z,26.57
2019-03-09T04:01:30.348Z,24.23
2019-03-09T04:02:01.536Z,23.90
2019-03-09T04:02:32.713Z,24.97
2019-03-09T04:03:03.920Z,28.27
2019-03-09T04:03:35.350Z,28.00
2019-03-09T04:04:06.683Z,27.87
2019-03-09T04:04:37.870Z,26.10
2019-03-09T04:05:09.056Z,29.93
2019-03-09T04:05:40.331Z,29.63
2019-03-09T04:06:11.514Z,25.00
2019-03-09T04:06:42.698Z,25.27
2019-03-09T04:07:13.881Z,21.70
2019-03-09T04:07:45.147Z,23.63
2019-03-09T04:08:16.368Z,24.17
2019-03-09T04:08:47.538Z,28.50
2019-03-09T04:09:18.738Z,24.47
2019-03-09T04:09:49.931Z,21.13
2019-03-09T04:10:21.200Z,23.63
2019-03-09T04:10:52.380Z,28.03
2019-03-09T04:11:23.591Z,27.60
2019-03-09T04:11:55.752Z,33.53
2019-03-09T04:12:26.958Z,33.13
2019-03-09T04:12:58.126Z,47.83
2019-03-09T04:13:29.341Z,58.97
2019-03-09T04:14:00.493Z,75.10
2019-03-09T04:14:32.008Z,69.43
2019-03-09T04:15:04.991Z,70.07
2019-03-09T04:15:36.180Z,59.13
2019-03-09T04:16:07.354Z,57.97
2019-03-09T04:16:38.552Z,48.90
2019-03-09T04:17:09.719Z,53.70
2019-03-09T04:17:40.927Z,41.70
2019-03-09T04:18:12.165Z,42.93
2019-03-09T04:18:43.367Z,45.00
2019-03-09T04:19:14.546Z,36.57
2019-03-09T04:19:45.742Z,31.50
2019-03-09T04:20:16.901Z,32.40
2019-03-09T04:20:49.172Z,27.07
2019-03-09T04:21:20.337Z,28.73
2019-03-09T04:21:51.540Z,32.27
2019-03-09T04:22:22.707Z,27.43
2019-03-09T04:22:53.902Z,26.67
2019-03-09T04:23:25.115Z,29.03
2019-03-09T04:23:57.369Z,30.13
2019-03-09T04:24:28.607Z,31.90
2019-03-09T04:24:59.894Z,29.30
2019-03-09T04:25:31.182Z,29.87
2019-03-09T04:26:02.779Z,28.33
2019-03-09T04:26:33.998Z,29.70
2019-03-09T04:27:05.162Z,29.27
2019-03-09T04:27:36.416Z,23.93
2019-03-09T04:28:07.581Z,24.03
2019-03-09T04:28:38.796Z,29.57
2019-03-09T04:29:09.999Z,24.53
2019-03-09T04:29:41.189Z,30.70
2019-03-09T04:30:12.474Z,23.30
2019-03-09T04:30:43.663Z,26.90
2019-03-09T04:31:14.812Z,27.93
2019-03-09T04:31:46.029Z,30.07
2019-03-09T04:32:17.302Z,28.60
2019-03-09T04:32:48.553Z,25.40
2019-03-09T04:33:19.717Z,22.37
2019-03-09T04:33:50.917Z,23.33
2019-03-09T04:34:22.062Z,21.60
2019-03-09T04:34:53.265Z,24.80
2019-03-09T04:35:24.422Z,20.47
2019-03-09T04:35:55.623Z,19.27
2019-03-09T04:36:26.793Z,22.90
2019-03-09T04:36:59.518Z,24.43
2019-03-09T04:37:30.678Z,22.17
2019-03-09T04:38:01.912Z,21.57
2019-03-09T04:38:33.073Z,27.90
2019-03-09T04:39:04.769Z,20.57
2019-03-09T04:39:36.358Z,28.17
2019-03-09T04:40:10.307Z,19.37
2019-03-09T04:40:41.465Z,29.23
2019-03-09T04:41:12.677Z,30.07
2019-03-09T04:41:47.729Z,32.73
2019-03-09T04:42:18.979Z,34.77
2019-03-09T04:42:50.223Z,43.10
2019-03-09T04:43:21.455Z,54.07
2019-03-09T04:43:52.683Z,59.30
2019-03-09T04:44:23.924Z,52.77
2019-03-09T04:44:55.196Z,45.87
2019-03-09T04:45:26.460Z,42.37
2019-03-09T04:45:57.695Z,38.70
2019-03-09T04:46:28.963Z,32.40
2019-03-09T04:47:00.189Z,31.43
2019-03-09T04:47:31.357Z,30.50
2019-03-09T04:48:02.591Z,29.73
2019-03-09T04:48:33.745Z,26.37
2019-03-09T04:49:04.939Z,24.67
2019-03-09T04:49:36.109Z,27.63
2019-03-09T04:50:10.018Z,20.77
2019-03-09T04:50:41.162Z,23.63
2019-03-09T04:51:12.418Z,22.10
2019-03-09T04:51:43.574Z,19.17
2019-03-09T04:52:14.804Z,21.90
2019-03-09T04:52:46.061Z,22.43
2019-03-09T04:53:17.346Z,22.77
2019-03-09T04:53:48.516Z,26.20
2019-03-09T04:54:19.718Z,21.87
2019-03-09T04:54:50.888Z,23.60
2019-03-09T04:55:22.110Z,25.27
2019-03-09T04:55:53.269Z,22.63
2019-03-09T04:56:25.458Z,22.63
2019-03-09T04:56:56.635Z,24.63
2019-03-09T04:57:27.924Z,25.57
2019-03-09T04:57:59.164Z,23.07
2019-03-09T04:58:30.410Z,22.77
2019-03-09T04:59:01.950Z,21.53
2019-03-09T04:59:34.181Z,24.57
2019-03-09T05:00:10.519Z,22.87
2019-03-09T05:00:41.741Z,27.03
2019-03-09T05:01:12.996Z,26.90
2019-03-09T05:01:44.230Z,22.17
2019-03-09T05:02:15.419Z,26.97
2019-03-09T05:02:46.596Z,22.73
2019-03-09T05:03:18.083Z,25.40
2019-03-09T05:04:18.798Z,23.23
2019-03-09T05:04:50.413Z,19.03
2019-03-09T05:05:21.561Z,21.33
2019-03-09T05:05:52.775Z,21.37
2019-03-09T05:06:23.941Z,19.17
2019-03-09T05:06:55.185Z,19.93
2019-03-09T05:07:28.269Z,24.30
2019-03-09T05:08:04.997Z,21.60
2019-03-09T05:08:41.943Z,19.27
2019-03-09T05:09:44.161Z,21.13
2019-03-09T05:10:26.832Z,19.13
2019-03-09T05:11:03.079Z,18.57
2019-03-09T05:11:34.319Z,24.50
2019-03-09T05:12:05.531Z,19.83
2019-03-09T05:12:36.698Z,22.20
2019-03-09T05:13:16.093Z,20.37
2019-03-09T05:13:47.549Z,21.60
2019-03-09T05:14:18.761Z,23.23
2019-03-09T05:14:49.933Z,27.57
2019-03-09T05:15:21.144Z,23.83
2019-03-09T05:15:52.301Z,25.83
2019-03-09T05:16:23.546Z,25.87
2019-03-09T05:16:54.694Z,28.43
2019-03-09T05:17:25.899Z,25.50
2019-03-09T05:17:57.098Z,23.87
2019-03-09T05:18:28.302Z,18.23
2019-03-09T05:18:59.516Z,21.07
2019-03-09T05:19:30.777Z,27.73
2019-03-09T05:20:02.542Z,18.67
2019-03-09T05:20:33.748Z,23.73
2019-03-09T05:21:04.904Z,26.63
2019-03-09T05:21:36.109Z,22.93
2019-03-09T05:22:07.312Z,23.67
2019-03-09T05:22:38.568Z,21.60
2019-03-09T05:23:09.828Z,24.33
2019-03-09T05:23:41.044Z,23.73
2019-03-09T05:24:12.294Z,26.30
2019-03-09T05:24:43.525Z,22.80
2019-03-09T05:25:14.768Z,29.60
2019-03-09T05:25:46.007Z,24.63
2019-03-09T05:26:17.244Z,22.43
2019-03-09T05:26:48.477Z,23.47
2019-03-09T05:27:19.700Z,24.63
2019-03-09T05:27:50.860Z,23.50
2019-03-09T05:28:23.096Z,22.73
2019-03-09T05:28:54.259Z,31.10
2019-03-09T05:29:25.479Z,27.37
2019-03-09T05:29:56.641Z,29.63
2019-03-09T05:30:35.183Z,23.40
2019-03-09T05:31:06.348Z,23.00
2019-03-09T05:31:37.559Z,26.80
2019-03-09T05:32:08.711Z,22.07
2019-03-09T05:32:39.943Z,23.70
2019-03-09T05:33:11.083Z,21.23
2019-03-09T05:33:42.309Z,24.37
2019-03-09T05:34:13.463Z,23.27
2019-03-09T05:34:44.677Z,20.87
2019-03-09T05:35:15.851Z,23.53
2019-03-09T05:35:47.068Z,22.13
2019-03-09T05:36:18.227Z,24.20
2019-03-09T05:36:49.451Z,22.20
2019-03-09T05:37:20.609Z,17.77
2019-03-09T05:37:51.841Z,21.70
2019-03-09T05:38:22.999Z,27.30
2019-03-09T05:38:54.214Z,30.17
2019-03-09T05:39:25.381Z,31.10
2019-03-09T05:39:57.360Z,28.47
2019-03-09T05:40:28.523Z,26.87
2019-03-09T05:40:59.724Z,30.57
2019-03-09T05:41:30.872Z,30.17
2019-03-09T05:42:02.177Z,27.73
2019-03-09T05:42:33.332Z,25.93
2019-03-09T05:43:04.555Z,23.47
2019-03-09T05:43:35.714Z,23.87
2019-03-09T05:44:06.927Z,21.63
2019-03-09T05:44:38.088Z,22.87
2019-03-09T05:45:09.293Z,22.33
2019-03-09T05:45:40.446Z,20.87
2019-03-09T05:46:11.667Z,19.13
2019-03-09T05:46:42.840Z,19.97
2019-03-09T05:47:14.128Z,18.80
2019-03-09T05:47:45.284Z,16.33
2019-03-09T05:48:16.504Z,19.33
2019-03-09T05:48:47.668Z,19.07
2019-03-09T05:49:18.866Z,17.27
2019-03-09T05:49:50.040Z,17.10
2019-03-09T05:50:21.265Z,18.03
2019-03-09T05:50:52.424Z,20.77
2019-03-09T05:51:23.624Z,17.57
2019-03-09T05:52:20.363Z,18.97
2019-03-09T05:53:12.887Z,21.57
2019-03-09T05:53:44.060Z,18.00
2019-03-09T05:54:15.241Z,22.20
2019-03-09T05:54:46.439Z,19.17
2019-03-09T05:55:17.652Z,19.37
2019-03-09T05:55:48.839Z,18.13
2019-03-09T05:56:20.129Z,20.20
2019-03-09T05:56:52.197Z,22.67
2019-03-09T05:57:23.404Z,22.87
2019-03-09T05:57:54.611Z,21.27
2019-03-09T05:58:25.804Z,21.07
2019-03-09T05:58:56.961Z,21.77
2019-03-09T05:59:28.194Z,19.50
2019-03-09T05:59:59.416Z,22.43
2019-03-09T06:00:30.831Z,22.50
2019-03-09T06:01:01.989Z,18.73
2019-03-09T06:01:33.200Z,20.00
2019-03-09T06:02:04.367Z,19.07
2019-03-09T06:02:35.573Z,19.20
2019-03-09T06:03:06.738Z,16.83
2019-03-09T06:03:37.940Z,20.23
2019-03-09T06:04:09.111Z,16.47
2019-03-09T06:04:40.342Z,21.47
2019-03-09T06:05:39.926Z,18.47
2019-03-09T06:06:11.258Z,16.87
2019-03-09T06:06:42.439Z,24.73
2019-03-09T06:07:13.645Z,21.57
2019-03-09T06:07:44.814Z,19.53
2019-03-09T06:08:16.018Z,18.87
2019-03-09T06:08:47.222Z,22.33
2019-03-09T06:09:18.642Z,19.67
2019-03-09T06:09:49.844Z,19.33
2019-03-09T06:10:21.064Z,20.40
2019-03-09T06:10:52.240Z,17.93
2019-03-09T06:11:23.421Z,18.87
2019-03-09T06:11:54.612Z,21.20
2019-03-09T06:12:25.804Z,23.53
2019-03-09T06:12:57.278Z,19.97
2019-03-09T06:13:28.462Z,21.83
2019-03-09T06:13:59.647Z,22.03
2019-03-09T06:14:30.844Z,18.03
2019-03-09T06:15:03.820Z,20.97
2019-03-09T06:15:35.169Z,18.90
2019-03-09T06:16:06.416Z,18.47
2019-03-09T06:16:37.602Z,19.17
2019-03-09T06:17:08.803Z,17.40
2019-03-09T06:17:39.987Z,21.03
2019-03-09T06:18:11.182Z,18.67
2019-03-09T06:18:42.369Z,20.27
2019-03-09T06:19:13.567Z,18.17
2019-03-09T06:19:44.734Z,18.23
2019-03-09T06:20:15.924Z,17.90
2019-03-09T06:20:47.119Z,21.73
2019-03-09T06:21:19.309Z,18.63
2019-03-09T06:21:50.485Z,17.57
2019-03-09T06:22:21.693Z,24.57
2019-03-09T06:22:52.970Z,18.97
2019-03-09T06:23:25.177Z,18.27
2019-03-09T06:23:56.349Z,16.10
2019-03-09T06:24:27.601Z,19.97
2019-03-09T06:24:58.843Z,19.10
2019-03-09T06:25:30.090Z,21.83
2019-03-09T06:26:01.342Z,20.13
2019-03-09T06:26:34.087Z,21.33
2019-03-09T06:27:05.311Z,21.53
2019-03-09T06:27:36.548Z,18.43
2019-03-09T06:28:07.788Z,20.40
2019-03-09T06:28:39.007Z,20.17
2019-03-09T06:29:10.327Z,14.77
2019-03-09T06:29:41.478Z,19.57
2019-03-09T06:30:12.799Z,17.50
2019-03-09T06:30:43.975Z,20.13
2019-03-09T06:31:15.204Z,18.53
2019-03-09T06:32:32.475Z,18.30
2019-03-09T06:33:16.787Z,19.37
2019-03-09T06:33:47.951Z,19.63
2019-03-09T06:34:19.166Z,18.43
2019-03-09T06:34:50.330Z,21.67
2019-03-09T06:35:22.658Z,21.77
2019-03-09T06:36:10.360Z,19.50
2019-03-09T06:36:49.798Z,18.20
2019-03-09T06:37:22.654Z,22.20
2019-03-09T06:38:20.208Z,21.40
2019-03-09T06:38:59.750Z,21.37
2019-03-09T06:39:32.430Z,21.07
2019-03-09T06:40:07.661Z,21.03
2019-03-09T06:40:38.892Z,18.20
2019-03-09T06:41:15.810Z,17.90
2019-03-09T06:42:02.071Z,16.67
2019-03-09T06:42:38.118Z,20.27
2019-03-09T06:43:09.372Z,19.17
2019-03-09T06:43:40.696Z,17.60
2019-03-09T06:44:11.951Z,24.57
2019-03-09T06:44:43.091Z,21.33
2019-03-09T06:45:14.304Z,18.13
2019-03-09T06:45:45.454Z,19.80
2019-03-09T06:46:16.692Z,25.20
2019-03-09T06:46:49.980Z,24.23
2019-03-09T06:47:21.126Z,24.90
2019-03-09T06:47:52.339Z,27.23
2019-03-09T06:48:23.624Z,25.73
2019-03-09T06:48:54.778Z,25.93
2019-03-09T06:49:26.117Z,28.10
2019-03-09T06:49:57.287Z,27.77
2019-03-09T06:50:28.474Z,26.37
2019-03-09T06:50:59.617Z,31.30
2019-03-09T06:51:30.835Z,27.17
2019-03-09T06:52:02.492Z,29.57
2019-03-09T06:52:33.742Z,25.67
2019-03-09T06:53:04.906Z,26.73